2.7F
Current conditions from King Hill
Updated every 5 minutes
 
  Monday January 25, 2021

Observations for Westford

Westford

44° 37' 38"N, 73° 02' 29"W, Elevation 850 ft.
Eastern Time

Hourly observations for the last 72 hours

Date Time Temperature (°F) Humi-
dity

(%)
Wind
(mph)
Pressure Rain (in)
Air Dew 6 Hour 1 Hr 3 Hr 6 Hr Day
Alt
(in)
Sea
Level

(mb)
Max Min
25 08:00 2.0 -0.5 89 Calm 30.15 1021.1 0.00
25 07:00 0.3 -2.9 4.2 0.3 86 Calm 30.15 1021.0 0.00
25 06:00 2.0 -0.7 88 Calm 30.15 1021.0 0.00
25 05:00 2.0 -0.5 89 Calm 30.13 1020.5 0.00
25 04:00 1.3 -1.7 87 Calm 30.13 1020.4 0.00
25 03:00 4.1 0.8 86 Calm 30.13 1020.4 0.00
25 02:00 1.8 -0.9 88 Calm 30.13 1020.4 0.00
25 01:00 2.5 -1.2 9.7 2.5 84 Calm 30.12 1019.9 0.00
25 00:00 5.3 1.8 85 Calm 30.12 1020.0 0.00
24 23:00 6.6 1.7 80 Calm 30.12 1020.1 0.00
24 22:00 8.2 3.0 79 Calm 30.13 1020.3 0.00
24 21:00 6.6 0.9 77 NNE 0 G 2 30.13 1020.3 0.00
24 20:00 7.8 1.2 74 NNE 0 G 5 30.13 1020.5 0.00
24 19:00 9.6 2.4 14.7 9.6 72 NNE 1 G 8 30.13 1020.5 0.00
24 18:00 10.1 2.6 71 NNW 0 G 4 30.13 1020.3 0.00
24 17:00 10.1 2.6 71 NNW 1 G 4 30.11 1019.5 0.00
24 16:00 13.4 4.5 67 NW 3 G 13 30.09 1019.1 0.00
24 15:00 14.3 5.0 66 NW 4 G 11 30.09 1019.0 0.00
24 14:00 14.2 3.9 63 W 6 G 13 30.08 1018.7 0.00
24 13:00 13.5 4.3 13.7 3.2 66 W 6 G 11 30.09 1018.9 0.00
24 12:00 11.9 2.7 66 W 11 G 21 30.10 1019.5 0.00
24 11:00 10.4 2.2 69 WNW 7 G 16 30.13 1020.3 0.00
24 10:00 9.4 0.7 67 W 4 G 19 30.14 1020.6 0.00
24 09:00 5.8 -1.9 70 W 7 G 12 30.14 1020.8 0.00
24 08:00 4.2 -2.5 73 W 6 G 16 30.14 1020.6 0.00
24 07:00 3.4 -2.7 3.6 0.7 75 W 9 G 15 30.13 1020.5 0.00
24 06:00 3.4 -2.5 76 W 9 G 15 30.13 1020.4 0.00
24 05:00 2.5 -2.5 79 W 3 G 10 30.13 1020.2 0.00
24 04:00 2.7 -2.3 79 W 2 G 10 30.11 1019.8 0.00
24 03:00 2.7 -2.6 78 WSW 5 G 11 30.11 1019.6 0.00
24 02:00 1.7 -2.3 83 W 4 G 9 30.11 1019.6 0.00
24 01:00 3.6 -1.5 6.2 1.5 79 WSW 3 G 12 30.10 1019.2 0.00
24 00:00 3.4 -1.1 81 W 2 G 11 30.10 1019.3 0.00
23 23:00 3.8 -1.3 79 WSW 3 G 9 30.10 1019.3 0.00
23 22:00 5.3 -0.3 77 WSW 7 G 12 30.11 1019.6 0.00
23 21:00 6.0 0.1 76 W 2 G 12 30.12 1019.9 0.00
23 20:00 5.0 -1.2 75 WSW 6 G 12 30.12 1019.9 0.00
23 19:00 5.3 -0.1 13.3 4.9 78 SW 1 G 9 30.12 1019.9 0.00
23 18:00 5.4 -0.5 76 W 6 G 13 30.10 1019.2 0.00
23 17:00 5.5 -0.7 75 W 5 G 14 30.08 1018.5 0.00
23 16:00 9.1 2.2 73 WNW 4 G 13 30.05 1017.6 0.00
23 15:00 9.8 2.9 73 WNW 6 G 14 30.03 1016.9 0.00
23 14:00 11.0 3.4 71 NNW 4 G 11 30.01 1016.4 0.00
23 13:00 12.7 5.1 12.7 7.2 71 WNW 4 G 10 30.00 1015.9 0.00
23 12:00 10.5 3.3 72 WNW 6 G 12 30.00 1016.0 0.00
23 11:00 9.7 3.4 75 WNW 6 G 10 30.01 1016.4 0.00
23 10:00 9.4 3.4 76 W 6 G 11 30.01 1016.2 0.00
23 09:00 7.7 2.8 80 WNW 5 G 13 29.98 1015.4 0.00
23 08:00 7.9 3.3 81 W 4 G 12 29.96 1014.7 0.00
23 07:00 7.8 3.7 15.2 7.8 83 W 2 G 14 29.94 1013.8 0.00
23 06:00 9.4 5.5 84 W 3 G 12 29.91 1012.9 0.00
23 05:00 11.5 8.9 89 W 2 G 10 29.89 1012.1 0.00
23 04:00 12.5 9.6 88 WNW 0 G 4 29.87 1011.5 0.00
23 03:00 13.6 10.5 87 WNW 0 G 7 29.86 1011.3 0.00
23 02:00 14.6 11.4 87 WNW 4 G 11 29.85 1011.0 0.00
23 01:00 15.1 11.1 22.0 15.1 84 W 3 G 9 29.84 1010.4 0.00
23 00:00 16.3 12.6 85 W 7 G 12 29.82 1009.9 0.00
22 23:00 16.9 13.2 85 NW 2 G 11 29.82 1009.7 0.00
22 22:00 17.4 13.1 83 WNW 3 G 8 29.80 1009.3 0.00
22 21:00 18.4 13.5 81 SSW 0 G 3 29.79 1008.8 0.00
22 20:00 20.4 15.8 82 N 2 G 8 29.77 1008.2 0.00
22 19:00 21.9 17.5 30.9 21.9 83 NNW 0 G 6 29.75 1007.5 0.00
22 18:00 23.3 18.0 80 NNW 0 G 4 29.73 1006.8 0.00
22 17:00 23.8 18.5 80 W 0 G 2 29.70 1005.9 0.00
22 16:00 26.2 20.0 77 W 0 G 4 29.67 1004.8 0.00
22 15:00 28.9 22.3 76 W 4 G 8 29.64 1003.8 0.00
22 14:00 30.3 24.3 78 NW 0 G 5 29.62 1003.0 0.00
22 13:00 30.2 24.2 30.3 27.7 78 W 0 G 1 29.60 1002.6 0.00
22 12:00 29.0 24.8 84 W 0 G 6 29.60 1002.3 0.00
22 11:00 30.2 24.8 80 WNW 1 G 5 29.59 1002.0 0.00
22 10:00 28.4 24.2 84 W 0 G 2 29.58 1001.6 0.00
22 09:00 28.5 26.2 91 WSW 5 G 9 29.56 1001.1 0.00

Data generated by WxSolution Version 1.9.1.7, Build 2018.11.24.


 
 
Current Radar Loop:

Copyright © WestfordWeather.net 2007-2021. All rights reserved.